Time;durP1;ratioP1;P1;durP2;ratioP2;P2;SDS_P1;SDS_P2;PMS_P1;PMS_P2;Temp;Humidity;BMP_temperature;BMP_pressure;BME280_temperature;BME280_humidity;BME280_pressure;Samples;Min_cycle;Max_cycle;Signal;HPM_P1;HPM_P2
2022/09/01 00:02:14;;;;;;;36.20;24.15;;;;;;;17.87;98.84;92458.63;5031237;28;20079;-75
2022/09/01 00:04:40;;;;;;;31.25;22.63;;;;;;;17.83;98.66;92459.63;5013064;28;20069;-74
2022/09/01 00:07:06;;;;;;;31.17;21.67;;;;;;;17.77;98.95;92453.00;5028088;28;20133;-75
2022/09/01 00:09:33;;;;;;;29.50;20.38;;;;;;;17.71;99.28;92452.44;5031232;28;20072;-75
2022/09/01 00:12:00;;;;;;;30.58;21.83;;;;;;;17.70;99.22;92453.53;5030840;28;20073;-75
2022/09/01 00:14:30;;;;;;;31.25;22.20;;;;;;;17.68;99.54;92447.81;5035431;28;20087;-76
2022/09/01 00:16:57;;;;;;;36.50;22.63;;;;;;;17.60;100.00;92453.97;5030135;28;20479;-76
2022/09/01 00:19:23;;;;;;;30.27;20.92;;;;;;;17.59;100.00;92450.56;5030822;28;20115;-75
2022/09/01 00:21:49;;;;;;;28.98;21.50;;;;;;;17.58;100.00;92456.94;5013324;28;20495;-75
2022/09/01 00:24:16;;;;;;;34.65;22.55;;;;;;;17.55;100.00;92457.59;5013190;28;20093;-75
2022/09/01 00:26:42;;;;;;;33.60;22.40;;;;;;;17.52;100.00;92452.97;5028636;28;20025;-75
2022/09/01 00:29:08;;;;;;;33.78;22.23;;;;;;;17.50;100.00;92457.06;4996952;28;20033;-75
2022/09/01 00:31:33;;;;;;;31.27;21.85;;;;;;;17.45;100.00;92455.38;5013356;28;20490;-75
2022/09/01 00:33:59;;;;;;;34.90;22.92;;;;;;;17.45;100.00;92461.47;5029493;28;20037;-75
2022/09/01 00:36:25;;;;;;;33.17;22.80;;;;;;;17.45;100.00;92460.66;5007845;28;20029;-74
2022/09/01 00:38:52;;;;;;;32.58;22.15;;;;;;;17.46;100.00;92456.94;5030855;28;20073;-75
2022/09/01 00:41:22;;;;;;;34.33;21.63;;;;;;;17.43;100.00;92463.66;5029585;28;20430;-75
2022/09/01 00:43:51;;;;;;;34.17;22.58;;;;;;;17.41;100.00;92465.84;5029251;28;20083;-74
2022/09/01 00:46:23;;;;;;;32.95;21.77;;;;;;;17.42;100.00;92463.97;5026297;28;20088;-75
2022/09/01 00:48:58;;;;;;;36.92;23.10;;;;;;;17.41;100.00;92460.56;5044680;28;20121;-75
2022/09/01 00:51:25;;;;;;;30.48;22.00;;;;;;;17.41;100.00;92454.50;5045770;28;20037;-75
2022/09/01 00:53:51;;;;;;;30.65;22.20;;;;;;;17.42;100.00;92466.63;5029220;28;20034;-75
2022/09/01 00:56:17;;;;;;;30.70;20.77;;;;;;;17.42;100.00;92466.63;5027978;28;20033;-75
2022/09/01 00:58:43;;;;;;;32.65;22.52;;;;;;;17.44;100.00;92475.78;5022859;28;20491;-75
2022/09/01 01:01:10;;;;;;;31.08;21.88;;;;;;;17.45;100.00;92473.91;5029189;28;20041;-75
2022/09/01 01:03:41;;;;;;;30.27;22.33;;;;;;;17.44;100.00;92475.00;5028918;28;20045;-75
2022/09/01 01:06:08;;;;;;;31.20;21.38;;;;;;;17.46;100.00;92475.44;5029135;28;20051;-75
2022/09/01 01:08:39;;;;;;;34.80;21.60;;;;;;;17.50;100.00;92476.34;5021803;28;20144;-75
2022/09/01 01:11:08;;;;;;;29.17;22.27;;;;;;;17.53;100.00;92472.28;5029168;28;20056;-76
2022/09/01 01:13:50;;;;;;;29.85;21.73;;;;;;;17.55;100.00;92468.19;5030193;28;20091;-75
2022/09/01 01:16:17;;;;;;;27.15;19.58;;;;;;;17.56;100.00;92471.59;5028325;28;20046;-75
2022/09/01 01:18:42;;;;;;;30.35;21.15;;;;;;;17.53;100.00;92467.75;5028319;28;20025;-75
2022/09/01 01:24:22;;;;;;;30.13;20.83;;;;;;;17.49;100.00;92464.19;5032928;28;20037;-75
2022/09/01 01:26:48;;;;;;;27.65;20.50;;;;;;;17.50;100.00;92470.28;5049207;28;20057;-75
2022/09/01 01:29:16;;;;;;;26.02;18.45;;;;;;;17.43;100.00;92463.66;5041719;28;20047;-75
2022/09/01 01:31:42;;;;;;;29.23;19.95;;;;;;;17.39;100.00;92464.66;5016278;28;20033;-76
2022/09/01 01:34:08;;;;;;;29.95;20.65;;;;;;;17.38;100.00;92463.88;5032827;28;20568;-75
2022/09/01 01:36:36;;;;;;;29.67;21.17;;;;;;;17.37;100.00;92459.66;5049133;28;20033;-75
2022/09/01 01:39:07;;;;;;;29.60;20.17;;;;;;;17.40;100.00;92459.00;5031173;28;20083;-75
2022/09/01 01:41:39;;;;;;;32.90;20.75;;;;;;;17.50;100.00;92457.81;5048304;28;20029;-75
2022/09/01 01:44:06;;;;;;;30.30;21.88;;;;;;;17.47;100.00;92453.16;5032473;28;20065;-75
2022/09/01 01:46:33;;;;;;;30.85;21.52;;;;;;;17.46;100.00;92452.41;5015983;28;20068;-75
2022/09/01 01:49:01;;;;;;;30.50;20.33;;;;;;;17.47;100.00;92451.31;5032643;28;20060;-75
2022/09/01 01:51:27;;;;;;;33.20;21.52;;;;;;;17.45;100.00;92453.53;5032802;28;20119;-75
2022/09/01 01:53:54;;;;;;;28.83;20.98;;;;;;;17.42;100.00;92445.47;5048521;28;20048;-74
2022/09/01 01:56:25;;;;;;;27.05;19.80;;;;;;;17.35;100.00;92445.22;5012887;28;20095;-75
2022/09/01 01:58:56;;;;;;;26.35;19.02;;;;;;;17.28;100.00;92446.53;5029200;28;20076;-75
2022/09/01 02:01:27;;;;;;;26.27;19.23;;;;;;;17.25;100.00;92446.44;5035242;28;20495;-75
2022/09/01 02:03:54;;;;;;;26.55;19.23;;;;;;;17.20;100.00;92444.78;5049088;28;20052;-75
2022/09/01 02:06:23;;;;;;;28.15;18.85;;;;;;;17.16;100.00;92443.88;5027992;28;20038;-75
2022/09/01 02:08:53;;;;;;;28.15;19.55;;;;;;;17.11;100.00;92438.78;4980288;28;20042;-76
2022/09/01 02:11:19;;;;;;;27.30;18.23;;;;;;;17.06;100.00;92441.63;5013892;28;20049;-75
2022/09/01 02:13:45;;;;;;;26.30;19.42;;;;;;;16.98;100.00;92434.59;5014784;28;20597;-74
2022/09/01 02:16:12;;;;;;;26.63;18.38;;;;;;;16.91;100.00;92421.91;5012194;28;20036;-74
2022/09/01 02:18:46;;;;;;;25.85;17.77;;;;;;;16.86;100.00;92427.38;5030496;28;20361;-75
2022/09/01 02:21:18;;;;;;;25.67;18.20;;;;;;;16.81;100.00;92427.59;5031590;28;20491;-75
2022/09/01 02:23:47;;;;;;;21.90;16.53;;;;;;;16.74;100.00;92432.59;5032897;28;20033;-75
2022/09/01 02:26:14;;;;;;;23.35;16.80;;;;;;;16.70;100.00;92429.06;5031870;28;20757;-75
2022/09/01 02:28:42;;;;;;;22.70;16.08;;;;;;;16.70;100.00;92424.53;5031197;28;20120;-75
2022/09/01 02:31:10;;;;;;;23.27;15.43;;;;;;;16.64;100.00;92423.22;5048199;28;20197;-76
2022/09/01 02:33:38;;;;;;;21.85;14.77;;;;;;;16.60;100.00;92427.59;5032591;28;20034;-76
2022/09/01 02:36:12;;;;;;;25.52;15.85;;;;;;;16.52;100.00;92425.78;5031741;28;20554;-75
2022/09/01 02:38:41;;;;;;;19.27;14.80;;;;;;;16.48;100.00;92427.53;5013586;28;20038;-75
2022/09/01 02:41:07;;;;;;;21.77;14.68;;;;;;;16.41;100.00;92425.41;5032854;28;20033;-76
2022/09/01 02:43:33;;;;;;;19.42;14.52;;;;;;;16.35;100.00;92422.19;4999223;28;20398;-75
2022/09/01 02:46:00;;;;;;;22.92;14.10;;;;;;;16.30;100.00;92426.88;5031437;28;20099;-75
2022/09/01 02:48:37;;;;;;;22.65;16.10;;;;;;;16.26;100.00;92423.34;5030024;28;20040;-75
2022/09/01 02:51:15;;;;;;;22.20;14.93;;;;;;;16.24;100.00;92431.59;5048101;28;20052;-75
2022/09/01 02:53:42;;;;;;;20.70;14.32;;;;;;;16.21;100.00;92422.47;5030408;28;20384;-75
2022/09/01 02:56:13;;;;;;;17.35;13.05;;;;;;;16.19;100.00;92427.28;5048131;28;20471;-75
2022/09/01 02:58:46;;;;;;;18.83;12.63;;;;;;;16.17;100.00;92424.19;5013620;28;20033;-75
2022/09/01 03:01:20;;;;;;;18.05;13.32;;;;;;;16.16;100.00;92419.22;5048211;28;20499;-75
2022/09/01 03:03:50;;;;;;;20.58;14.40;;;;;;;16.16;100.00;92416.59;5030886;28;20040;-75
2022/09/01 03:06:18;;;;;;;19.83;14.50;;;;;;;16.17;100.00;92416.28;5014530;28;20033;-75
2022/09/01 03:08:45;;;;;;;19.15;14.05;;;;;;;16.16;100.00;92420.00;5029294;28;20033;-75
2022/09/01 03:11:11;;;;;;;19.70;13.93;;;;;;;16.14;100.00;92416.13;5030996;28;20049;-75
2022/09/01 03:13:39;;;;;;;15.35;10.45;;;;;;;16.12;98.95;92410.41;5047508;28;20111;-75
2022/09/01 03:16:06;;;;;;;14.85;9.60;;;;;;;16.11;96.73;92403.59;5045996;28;20027;-75
2022/09/01 03:18:34;;;;;;;11.73;8.05;;;;;;;16.06;95.54;92398.50;5014621;28;20030;-74
2022/09/01 03:21:01;;;;;;;7.25;4.65;;;;;;;15.97;88.99;92396.69;5047219;28;20042;-75
2022/09/01 03:23:28;;;;;;;7.63;4.65;;;;;;;15.92;88.22;92396.88;5014332;28;20048;-75
2022/09/01 03:25:54;;;;;;;5.15;3.15;;;;;;;15.83;84.58;92390.88;5030105;28;20099;-75
2022/09/01 03:28:20;;;;;;;5.03;3.00;;;;;;;15.73;83.77;92386.72;5047338;28;20047;-75
2022/09/01 03:30:52;;;;;;;7.30;2.90;;;;;;;15.66;84.11;92389.09;5018316;28;20468;-75
2022/09/01 03:33:20;;;;;;;9.45;3.10;;;;;;;15.59;84.70;92388.81;5027269;28;20037;-75
2022/09/01 03:35:46;;;;;;;4.60;2.55;;;;;;;15.53;84.07;92384.81;5034172;28;20103;-75
2022/09/01 03:38:20;;;;;;;6.45;2.90;;;;;;;15.44;83.83;92384.84;5046991;28;20037;-75
2022/09/01 03:40:48;;;;;;;3.90;2.35;;;;;;;15.37;83.56;92379.31;5036928;28;20153;-75
2022/09/01 03:43:15;;;;;;;4.78;2.58;;;;;;;15.32;83.42;92376.84;5005176;28;20045;-74
2022/09/01 03:45:42;;;;;;;4.40;2.28;;;;;;;15.28;82.35;92387.25;5029319;28;20056;-75
2022/09/01 03:48:09;;;;;;;3.78;2.58;;;;;;;15.22;82.26;92380.63;5030242;28;20048;-76
2022/09/01 03:50:43;;;;;;;5.13;2.60;;;;;;;15.20;82.98;92377.53;5028615;28;20434;-75
2022/09/01 03:53:14;;;;;;;5.93;3.05;;;;;;;15.16;83.10;92377.38;5046875;28;20033;-75
2022/09/01 03:55:44;;;;;;;6.95;2.47;;;;;;;15.14;81.88;92379.56;5046396;28;20128;-75
2022/09/01 03:58:13;;;;;;;4.10;2.28;;;;;;;15.14;81.23;92381.44;5030406;28;20037;-75
2022/09/01 04:00:42;;;;;;;5.10;3.10;;;;;;;15.16;81.16;92381.88;5013366;28;20461;-75
2022/09/01 04:03:11;;;;;;;6.93;3.55;;;;;;;15.16;82.48;92374.75;5029092;28;20041;-75
2022/09/01 04:05:39;;;;;;;6.97;3.85;;;;;;;15.19;83.11;92374.09;4997569;28;20438;-74
2022/09/01 04:08:09;;;;;;;5.68;3.78;;;;;;;15.19;83.32;92366.19;5029200;28;20120;-75
2022/09/01 04:10:48;;;;;;;6.43;3.72;;;;;;;15.18;83.72;92362.03;5046597;28;20099;-74
2022/09/01 04:13:19;;;;;;;6.38;4.22;;;;;;;15.17;84.04;92360.44;5014167;28;20065;-75
2022/09/01 04:15:45;;;;;;;9.25;5.70;;;;;;;15.17;84.42;92360.44;5020651;28;20478;-75
2022/09/01 04:18:19;;;;;;;8.45;3.97;;;;;;;15.13;85.05;92358.78;5018866;28;20088;-75
2022/09/01 04:20:55;;;;;;;5.95;3.85;;;;;;;15.08;86.41;92359.72;5026380;28;20423;-74
2022/09/01 04:23:32;;;;;;;5.82;3.90;;;;;;;15.01;86.36;92354.16;5011424;28;20037;-75
2022/09/01 04:26:19;;;;;;;10.40;6.18;;;;;;;15.02;87.97;92347.81;5035484;28;20112;-75
2022/09/01 04:28:49;;;;;;;10.70;7.20;;;;;;;15.06;89.51;92351.34;5039198;28;20773;-74
2022/09/01 04:31:18;;;;;;;10.88;6.70;;;;;;;15.09;89.58;92363.91;5021509;28;20049;-75
2022/09/01 04:33:50;;;;;;;13.85;8.02;;;;;;;15.13;90.10;92359.56;5027416;28;20052;-75
2022/09/01 04:36:26;;;;;;;11.38;7.40;;;;;;;15.18;90.20;92356.75;5029636;28;20033;-74
2022/09/01 04:38:54;;;;;;;9.98;5.97;;;;;;;15.18;90.01;92356.75;5027201;28;20510;-75
2022/09/01 04:41:24;;;;;;;9.18;5.82;;;;;;;15.19;90.31;92355.63;5040247;28;20704;-76
2022/09/01 04:43:55;;;;;;;12.80;6.93;;;;;;;15.17;90.47;92351.78;5038282;28;20036;-77
2022/09/01 04:46:22;;;;;;;8.32;5.68;;;;;;;15.17;91.03;92360.44;5023940;28;20048;-76
2022/09/01 04:48:51;;;;;;;10.15;5.72;;;;;;;15.15;91.59;92356.59;5048052;28;20044;-76
2022/09/01 04:51:18;;;;;;;9.75;6.80;;;;;;;15.11;91.96;92361.75;5034889;28;20036;-76
2022/09/01 04:53:51;;;;;;;11.50;6.85;;;;;;;15.10;91.69;92360.19;5017934;28;20446;-76
2022/09/01 04:56:21;;;;;;;10.20;5.93;;;;;;;15.09;91.28;92358.66;5027582;28;20044;-75
2022/09/01 04:59:03;;;;;;;8.25;5.38;;;;;;;15.04;91.51;92353.56;5039269;28;20030;-77
2022/09/01 05:01:29;;;;;;;7.30;4.82;;;;;;;15.02;90.90;92360.22;5030749;28;20072;-76
2022/09/01 05:04:00;;;;;;;6.45;2.80;;;;;;;15.00;86.58;92360.53;5030563;28;20081;-76
2022/09/01 05:06:38;;;;;;;5.63;3.03;;;;;;;15.03;84.64;92357.25;5021382;28;20042;-76
2022/09/01 05:09:04;;;;;;;6.60;2.55;;;;;;;15.06;83.84;92353.22;5044592;28;20034;-76
2022/09/01 05:11:45;;;;;;;4.03;2.42;;;;;;;15.07;82.10;92365.31;5015477;28;20037;-76
2022/09/01 05:14:24;;;;;;;3.67;2.30;;;;;;;15.06;81.71;92363.75;5014553;28;20045;-76
2022/09/01 05:16:57;;;;;;;5.13;3.10;;;;;;;15.10;82.85;92364.69;5013009;28;20040;-76
2022/09/01 05:19:27;;;;;;;4.88;2.90;;;;;;;15.15;82.49;92370.56;5030072;28;20030;-76
2022/09/01 05:21:56;;;;;;;5.65;2.60;;;;;;;15.22;81.71;92367.44;5046155;28;20038;-76
2022/09/01 05:24:24;;;;;;;4.10;2.40;;;;;;;15.27;80.99;92369.13;4997970;28;20041;-76
2022/09/01 05:26:49;;;;;;;4.43;2.30;;;;;;;15.31;77.32;92364.75;5029039;28;20140;-76
2022/09/01 05:29:16;;;;;;;4.57;2.28;;;;;;;15.36;78.66;92364.59;5008911;28;20041;-76
2022/09/01 05:31:46;;;;;;;5.13;2.35;;;;;;;15.41;77.93;92367.03;5044319;28;20038;-76
2022/09/01 05:34:14;;;;;;;4.65;2.42;;;;;;;15.47;77.96;92363.13;5029395;28;20120;-76
2022/09/01 05:36:42;;;;;;;5.95;2.33;;;;;;;15.55;78.00;92374.72;5027529;28;20030;-77
2022/09/01 05:39:13;;;;;;;4.35;2.20;;;;;;;15.65;77.49;92381.47;5027594;28;20037;-78
2022/09/01 05:41:39;;;;;;;4.85;2.30;;;;;;;15.77;77.31;92381.59;5029157;28;20033;-76
2022/09/01 05:44:07;;;;;;;5.68;3.10;;;;;;;15.91;77.78;92374.19;5029284;28;20041;-76
2022/09/01 05:46:36;;;;;;;4.82;3.20;;;;;;;16.10;78.99;92372.97;5012924;28;20438;-76
2022/09/01 05:49:05;;;;;;;7.18;3.10;;;;;;;16.34;78.88;92369.69;5014045;28;20555;-76
2022/09/01 05:51:34;;;;;;;5.43;3.20;;;;;;;16.47;78.58;92375.78;5026165;28;20446;-76
2022/09/01 05:54:00;;;;;;;5.65;3.35;;;;;;;16.57;77.70;92373.53;5009401;28;20038;-76
2022/09/01 05:56:30;;;;;;;5.80;3.42;;;;;;;16.72;78.18;92384.56;5010512;28;20030;-76
2022/09/01 05:58:56;;;;;;;7.90;3.25;;;;;;;16.90;77.63;92385.97;5039380;28;20049;-76
2022/09/01 06:01:25;;;;;;;6.32;3.30;;;;;;;16.99;77.31;92380.59;5029556;28;20037;-76
2022/09/01 06:03:56;;;;;;;5.78;3.17;;;;;;;17.12;77.34;92384.81;5029691;28;20083;-76
2022/09/01 06:06:29;;;;;;;4.65;3.20;;;;;;;17.26;77.48;92390.53;5032614;28;20076;-76
2022/09/01 06:08:57;;;;;;;6.07;3.30;;;;;;;17.38;76.12;92389.00;5049328;28;20068;-76
2022/09/01 06:11:25;;;;;;;5.13;3.13;;;;;;;17.61;75.93;92394.66;5016589;28;20033;-75
2022/09/01 06:13:54;;;;;;;5.53;3.33;;;;;;;18.62;73.65;92395.66;5031545;28;20053;-76
2022/09/01 06:16:23;;;;;;;6.47;3.58;;;;;;;20.05;69.24;92396.53;5031740;28;20029;-75
2022/09/01 06:18:52;;;;;;;4.97;3.17;;;;;;;21.30;64.89;92400.84;5029454;28;20021;-74
2022/09/01 06:21:19;;;;;;;4.63;3.00;;;;;;;22.34;61.37;92399.03;5028979;28;20076;-76
2022/09/01 06:23:45;;;;;;;5.25;3.10;;;;;;;23.26;57.59;92404.66;5028683;28;20549;-75
2022/09/01 06:26:18;;;;;;;5.38;2.90;;;;;;;24.26;55.85;92403.91;5028678;28;20037;-76
2022/09/01 06:28:45;;;;;;;6.32;3.17;;;;;;;25.01;50.39;92403.50;5029122;28;20136;-76
2022/09/01 06:31:11;;;;;;;6.97;3.10;;;;;;;24.76;49.08;92404.16;5030172;28;20034;-77
2022/09/01 06:33:38;;;;;;;5.22;3.00;;;;;;;25.34;48.25;92405.13;5049272;28;20514;-76
2022/09/01 06:36:04;;;;;;;6.32;3.08;;;;;;;25.56;47.87;92408.63;5032321;28;20044;-76
2022/09/01 06:38:30;;;;;;;6.28;3.00;;;;;;;25.67;48.17;92411.28;5032439;28;20063;-77
2022/09/01 06:41:03;;;;;;;5.90;2.90;;;;;;;26.29;43.84;92416.25;5031334;28;20060;-77
2022/09/01 06:43:30;;;;;;;5.47;2.78;;;;;;;26.21;43.08;92412.06;5031833;28;20067;-77
2022/09/01 06:46:00;;;;;;;6.15;2.80;;;;;;;26.58;42.59;92413.53;5048623;28;20048;-77
2022/09/01 06:48:29;;;;;;;5.45;3.10;;;;;;;26.87;42.61;92416.13;5048701;28;20048;-77
2022/09/01 06:51:03;;;;;;;4.55;2.53;;;;;;;26.73;42.83;92414.25;5001451;28;20037;-76
2022/09/01 06:53:30;;;;;;;5.40;2.88;;;;;;;26.93;40.94;92419.91;4996220;28;20034;-77
2022/09/01 06:55:57;;;;;;;8.07;3.10;;;;;;;26.51;41.31;92410.84;5029640;28;20026;-77
2022/09/01 06:58:24;;;;;;;6.80;3.22;;;;;;;26.28;43.66;92425.47;5029865;28;20187;-77
2022/09/01 07:00:51;;;;;;;7.32;3.30;;;;;;;25.57;43.72;92418.16;5014518;28;20042;-76
2022/09/01 07:03:17;;;;;;;5.97;3.00;;;;;;;24.88;46.03;92427.94;5013596;28;20050;-76
2022/09/01 07:06:05;;;;;;;5.80;2.88;;;;;;;24.24;48.48;92423.00;4997651;28;20033;-76
2022/09/01 07:08:57;;;;;;;7.13;3.17;;;;;;;24.01;49.70;92425.16;5002895;28;20072;-76
2022/09/01 07:11:35;;;;;;;6.68;3.40;;;;;;;23.50;50.62;92426.63;5029352;28;20029;-76
2022/09/01 07:14:03;;;;;;;5.07;3.33;;;;;;;23.25;51.16;92423.72;5027723;28;20587;-76
2022/09/01 07:16:38;;;;;;;7.55;3.30;;;;;;;23.40;50.93;92420.03;5011253;28;20056;-76
2022/09/01 07:19:05;;;;;;;8.68;3.40;;;;;;;23.18;51.32;92426.31;5028120;28;20080;-76
2022/09/01 07:21:32;;;;;;;5.13;3.13;;;;;;;23.13;53.06;92426.66;5019805;28;20029;-76
2022/09/01 07:24:02;;;;;;;7.38;3.03;;;;;;;22.90;53.56;92437.41;5030836;28;20407;-75
2022/09/01 07:26:28;;;;;;;7.75;3.25;;;;;;;22.75;53.61;92433.81;5047460;28;20045;-76
2022/09/01 07:28:56;;;;;;;4.85;3.15;;;;;;;23.13;55.82;92432.75;5031068;28;20045;-76
2022/09/01 07:31:28;;;;;;;6.78;3.38;;;;;;;23.68;54.79;92435.53;5032073;28;20033;-76
2022/09/01 07:33:57;;;;;;;5.60;3.70;;;;;;;24.04;52.87;92438.53;5031476;28;20487;-76
2022/09/01 07:36:25;;;;;;;6.78;3.30;;;;;;;23.77;51.74;92443.28;5031241;28;20060;-75
2022/09/01 07:38:54;;;;;;;7.32;3.42;;;;;;;23.21;52.32;92452.28;5033668;28;20494;-75
2022/09/01 07:41:23;;;;;;;5.72;3.17;;;;;;;22.95;52.84;92453.88;5030493;28;20064;-76
2022/09/01 07:44:12;;;;;;;7.05;3.88;;;;;;;22.74;54.41;92453.63;5030037;28;20526;-75
2022/09/01 07:47:11;;;;;;;5.70;3.78;;;;;;;22.51;55.53;92457.13;4997868;28;20142;-76
2022/09/01 07:49:38;;;;;;;8.02;3.90;;;;;;;22.59;57.04;92453.44;5047137;28;20042;-76
2022/09/01 07:52:04;;;;;;;6.97;3.97;;;;;;;22.40;56.93;92458.88;5012275;28;20532;-76
2022/09/01 07:54:32;;;;;;;8.35;4.10;;;;;;;22.15;59.56;92448.63;5030465;28;20038;-76
2022/09/01 07:56:58;;;;;;;6.40;4.20;;;;;;;22.28;58.78;92459.88;5030367;28;20095;-76
2022/09/01 07:59:26;;;;;;;8.35;4.40;;;;;;;22.33;58.51;92461.47;5030302;28;20029;-76
2022/09/01 08:02:03;;;;;;;12.90;4.50;;;;;;;22.59;56.84;92461.44;5046558;28;20045;-76
2022/09/01 08:04:28;;;;;;;7.80;4.70;;;;;;;22.27;58.94;92458.34;5041016;28;20403;-76
2022/09/01 08:06:55;;;;;;;7.88;4.90;;;;;;;21.99;60.68;92456.00;5013236;28;20041;-76
2022/09/01 08:09:20;;;;;;;6.57;4.47;;;;;;;22.13;60.49;92460.75;5029894;28;20450;-76
2022/09/01 08:11:46;;;;;;;6.70;4.45;;;;;;;22.39;59.23;92454.69;5029843;28;20099;-75
2022/09/01 08:14:12;;;;;;;8.68;4.88;;;;;;;22.41;58.35;92457.78;5011511;28;20142;-76
2022/09/01 08:16:37;;;;;;;8.52;4.35;;;;;;;22.44;58.52;92457.03;5029787;28;20481;-76
2022/09/01 08:19:04;;;;;;;8.98;4.22;;;;;;;22.19;57.56;92460.09;5046366;28;20125;-76
2022/09/01 08:21:46;;;;;;;5.88;3.90;;;;;;;22.58;55.18;92457.22;5029850;28;20505;-76
2022/09/01 08:24:25;;;;;;;7.45;4.50;;;;;;;22.64;57.11;92461.13;5028069;28;20041;-76
2022/09/01 08:26:51;;;;;;;9.48;4.35;;;;;;;22.68;57.61;92463.09;5023644;28;20510;-76
2022/09/01 08:29:17;;;;;;;7.38;3.75;;;;;;;22.81;55.73;92448.38;5009871;28;20033;-76
2022/09/01 08:31:42;;;;;;;10.95;4.13;;;;;;;22.97;55.50;92456.19;5009913;28;20452;-76
2022/09/01 08:34:11;;;;;;;7.68;4.30;;;;;;;23.10;55.26;92456.72;5026316;28;20512;-76
2022/09/01 08:36:37;;;;;;;7.70;4.57;;;;;;;23.25;54.85;92456.50;4996657;28;20033;-75
2022/09/01 08:39:03;;;;;;;7.47;4.10;;;;;;;22.99;55.50;92454.72;5026174;28;20038;-76
2022/09/01 08:41:55;;;;;;;5.05;3.28;;;;;;;22.71;55.36;92455.09;5026261;28;20041;-76
2022/09/01 08:44:30;;;;;;;10.25;3.58;;;;;;;22.74;54.61;92456.28;5009797;28;20578;-75
2022/09/01 08:47:03;;;;;;;7.93;4.10;;;;;;;22.42;55.03;92460.06;5022385;28;20029;-75
2022/09/01 08:49:30;;;;;;;7.40;4.00;;;;;;;22.19;55.59;92454.78;5046011;28;20033;-76
2022/09/01 08:52:40;;;;;;;6.90;4.13;;;;;;;22.50;55.69;92460.19;5030199;28;20045;-76
2022/09/01 08:55:24;;;;;;;7.97;4.15;;;;;;;22.31;55.51;92455.72;5029322;28;20170;-75
2022/09/01 08:57:54;;;;;;;7.22;4.50;;;;;;;22.35;58.05;92454.63;5012810;28;20049;-75
2022/09/01 09:00:23;;;;;;;6.63;3.72;;;;;;;22.56;58.15;92464.84;5010973;28;20072;-75
2022/09/01 09:03:30;;;;;;;8.38;4.85;;;;;;;22.65;56.95;92462.69;5025943;28;20052;-75
2022/09/01 09:06:20;;;;;;;7.38;4.50;;;;;;;22.59;56.99;92461.44;4969272;28;20039;-76
2022/09/01 09:08:57;;;;;;;8.13;4.68;;;;;;;23.01;57.49;92462.34;5027911;28;20478;-75
2022/09/01 09:11:41;;;;;;;9.85;4.57;;;;;;;23.21;54.53;92460.28;5030230;28;20041;-76
2022/09/01 09:14:25;;;;;;;9.70;4.45;;;;;;;23.25;55.39;92461.09;5029433;28;20254;-75
2022/09/01 09:16:55;;;;;;;6.45;4.45;;;;;;;23.43;54.50;92451.34;5016535;28;20036;-76
2022/09/01 09:19:30;;;;;;;6.68;3.90;;;;;;;23.48;54.14;92453.72;5028320;28;20071;-75
2022/09/01 09:21:59;;;;;;;10.00;4.30;;;;;;;23.37;54.89;92458.19;5045273;28;20037;-75
2022/09/01 09:24:27;;;;;;;7.68;3.95;;;;;;;23.57;54.83;92449.94;5045167;28;20025;-75
2022/09/01 09:26:58;;;;;;;6.03;3.75;;;;;;;23.19;54.88;92454.53;5012760;28;20057;-75
2022/09/01 09:29:26;;;;;;;5.43;4.05;;;;;;;23.22;54.65;92461.84;5011637;28;20314;-75
2022/09/01 09:32:21;;;;;;;6.07;4.03;;;;;;;23.63;53.63;92451.91;5016628;28;20066;-75
2022/09/01 09:34:47;;;;;;;10.55;4.28;;;;;;;23.74;52.92;92449.34;5005083;28;20041;-76
2022/09/01 09:37:16;;;;;;;6.57;4.38;;;;;;;23.73;52.64;92447.78;5042344;28;20040;-74
2022/09/01 09:39:42;;;;;;;6.00;3.85;;;;;;;23.32;54.05;92452.38;5031095;28;20033;-74
2022/09/01 09:42:13;;;;;;;5.97;3.88;;;;;;;23.20;55.26;92451.50;5032406;28;20576;-74
2022/09/01 09:44:51;;;;;;;6.95;4.57;;;;;;;23.23;55.90;92445.44;5032358;28;20065;-73
2022/09/01 09:47:38;;;;;;;8.52;4.35;;;;;;;23.14;55.42;92457.53;5028903;28;20515;-74
2022/09/01 09:50:16;;;;;;;8.82;4.57;;;;;;;23.62;54.04;92449.59;5030220;28;20049;-74
2022/09/01 09:52:45;;;;;;;7.28;4.53;;;;;;;23.64;52.84;92444.66;5048895;28;20411;-76
2022/09/01 09:55:20;;;;;;;6.05;3.85;;;;;;;23.59;54.52;92442.34;5034075;28;20108;-75
2022/09/01 09:57:47;;;;;;;7.07;4.00;;;;;;;23.63;55.07;92456.50;5014602;28;20518;-75
2022/09/01 10:00:23;;;;;;;7.13;4.55;;;;;;;23.55;53.86;92446.88;5018484;28;20045;-75
2022/09/01 10:03:02;;;;;;;6.68;4.70;;;;;;;24.00;53.77;92450.34;5032882;28;20041;-74
2022/09/01 10:05:36;;;;;;;6.65;4.30;;;;;;;24.16;54.23;92442.03;5032701;28;20034;-74
2022/09/01 10:08:04;;;;;;;8.05;4.53;;;;;;;24.23;54.08;92437.53;5032516;28;20407;-74
2022/09/01 10:10:41;;;;;;;6.22;4.78;;;;;;;24.47;53.29;92440.72;5033986;28;20041;-75
2022/09/01 10:13:15;;;;;;;8.80;5.10;;;;;;;24.39;52.96;92436.47;5031629;28;20099;-74
2022/09/01 10:15:46;;;;;;;10.68;5.10;;;;;;;24.70;52.00;92437.78;5032485;28;20029;-74
2022/09/01 10:18:16;;;;;;;7.32;4.70;;;;;;;24.97;52.05;92435.63;5033549;28;20443;-75
2022/09/01 10:21:09;;;;;;;8.98;5.38;;;;;;;24.60;52.40;92439.28;5033457;28;20103;-75
2022/09/01 10:23:37;;;;;;;9.77;5.53;;;;;;;23.98;54.77;92432.00;5027350;28;20042;-74
2022/09/01 10:26:11;;;;;;;7.22;5.10;;;;;;;24.26;52.71;92425.31;5033166;28;20029;-75
2022/09/01 10:28:50;;;;;;;7.53;5.50;;;;;;;24.47;53.47;92424.66;5028558;28;20040;-75
2022/09/01 10:31:16;;;;;;;8.52;4.72;;;;;;;24.81;52.95;92424.47;5049685;28;20041;-75
2022/09/01 10:33:41;;;;;;;7.07;4.90;;;;;;;25.00;53.30;92418.03;5047270;28;20074;-74
2022/09/01 10:36:08;;;;;;;8.10;4.90;;;;;;;24.48;52.73;92418.97;5031301;28;20399;-74
2022/09/01 10:38:34;;;;;;;9.30;5.82;;;;;;;24.61;52.80;92411.41;5030832;28;20081;-75
2022/09/01 10:41:06;;;;;;;8.02;5.70;;;;;;;24.79;53.15;92418.72;5031820;28;20499;-75
2022/09/01 10:43:43;;;;;;;11.07;5.30;;;;;;;24.99;54.32;92409.22;5031682;28;20064;-75
2022/09/01 10:46:18;;;;;;;10.00;4.97;;;;;;;24.75;52.15;92412.59;5033129;28;20037;-75
2022/09/01 10:48:46;;;;;;;6.78;4.22;;;;;;;24.24;50.97;92412.31;5032912;28;20493;-75
2022/09/01 10:51:12;;;;;;;8.82;4.88;;;;;;;23.46;53.02;92412.44;5031528;28;20075;-74
2022/09/01 10:53:37;;;;;;;10.90;5.18;;;;;;;23.03;55.10;92412.81;5032813;28;20471;-74
2022/09/01 10:56:23;;;;;;;9.75;5.07;;;;;;;22.97;56.29;92416.91;5032646;28;20488;-74
2022/09/01 10:58:58;;;;;;;7.78;5.10;;;;;;;23.55;55.53;92412.16;5031581;28;20491;-75
2022/09/01 11:01:39;;;;;;;9.30;4.60;;;;;;;24.17;54.59;92414.94;5031307;28;20495;-74
2022/09/01 11:04:12;;;;;;;7.70;5.03;;;;;;;24.02;54.42;92410.63;5048180;28;20052;-74
2022/09/01 11:06:41;;;;;;;7.97;4.88;;;;;;;23.99;53.07;92406.81;5029704;28;20068;-74
2022/09/01 11:09:21;;;;;;;7.22;4.75;;;;;;;24.14;51.98;92406.88;5032187;28;20060;-74
2022/09/01 11:12:15;;;;;;;10.57;4.55;;;;;;;24.26;53.47;92410.03;5032507;28;20044;-75
2022/09/01 11:14:50;;;;;;;8.10;5.50;;;;;;;24.29;53.09;92411.94;5031249;28;20137;-75
2022/09/01 11:17:19;;;;;;;10.07;6.22;;;;;;;23.86;55.72;92403.66;5031348;28;20064;-74
2022/09/01 11:19:45;;;;;;;8.25;5.20;;;;;;;23.65;53.06;92403.47;5032872;28;20044;-74
2022/09/01 11:22:14;;;;;;;8.95;5.70;;;;;;;23.74;53.30;92408.50;5047831;28;20082;-75
2022/09/01 11:24:45;;;;;;;10.88;4.90;;;;;;;23.71;56.33;92404.66;5048992;28;20041;-74
2022/09/01 11:27:49;;;;;;;9.68;6.03;;;;;;;23.66;55.49;92415.69;5047577;28;20095;-74
2022/09/01 11:30:40;;;;;;;8.88;5.38;;;;;;;23.67;54.54;92409.97;5047606;28;20037;-74
2022/09/01 11:33:33;;;;;;;9.87;4.93;;;;;;;23.39;53.55;92413.16;5027130;28;20041;-75
2022/09/01 11:36:03;;;;;;;10.10;5.65;;;;;;;23.57;54.43;92409.88;5030808;28;20025;-74
2022/09/01 11:38:41;;;;;;;9.73;5.43;;;;;;;23.50;55.30;92407.91;5030977;28;20361;-75
2022/09/01 11:41:06;;;;;;;8.13;4.97;;;;;;;23.49;53.41;92406.38;5032392;28;20293;-74
2022/09/01 11:43:32;;;;;;;9.43;5.43;;;;;;;23.39;54.44;92405.13;5030905;28;20112;-74
2022/09/01 11:46:16;;;;;;;11.18;6.53;;;;;;;23.58;54.96;92404.19;5030714;28;20516;-75
2022/09/01 11:48:46;;;;;;;10.93;6.55;;;;;;;24.05;55.56;92413.34;5016592;28;20573;-76